createdAt,value
2023-03-01T00:01:23.818Z,11.50
2023-03-01T00:06:26.424Z,10.98
2023-03-01T00:11:32.853Z,10.68
2023-03-01T00:16:43.068Z,11.23
2023-03-01T00:21:48.341Z,11.13
2023-03-01T00:26:53.785Z,10.13
2023-03-01T00:31:55.544Z,10.88
2023-03-01T00:37:08.365Z,11.20
2023-03-01T00:42:11.259Z,10.25
2023-03-01T00:47:13.117Z,11.00
2023-03-01T00:52:15.132Z,10.95
2023-03-01T00:57:16.892Z,11.82
2023-03-01T01:02:19.692Z,11.82
2023-03-01T01:07:21.724Z,14.05
2023-03-01T01:12:23.402Z,11.35
2023-03-01T01:17:25.792Z,10.95
2023-03-01T01:22:37.171Z,12.25
2023-03-01T01:32:41.197Z,11.57
2023-03-01T01:37:42.941Z,12.23
2023-03-01T01:42:44.719Z,12.27
2023-03-01T01:47:49.641Z,10.65
2023-03-01T01:52:53.668Z,11.32
2023-03-01T01:58:00.469Z,11.57
2023-03-01T02:03:06.864Z,11.48
2023-03-01T02:08:11.417Z,10.82
2023-03-01T02:13:13.991Z,11.75
2023-03-01T02:18:19.711Z,11.13
2023-03-01T02:23:21.574Z,11.13
2023-03-01T02:28:35.780Z,11.57
2023-03-01T02:33:39.448Z,11.95
2023-03-01T02:38:44.670Z,11.88
2023-03-01T02:43:47.162Z,12.40
2023-03-01T02:48:54.925Z,12.45
2023-03-01T02:54:09.320Z,13.98
2023-03-01T02:59:12.847Z,13.75
2023-03-01T03:04:18.005Z,13.10
2023-03-01T03:09:20.565Z,13.25
2023-03-01T03:14:22.492Z,12.35
2023-03-01T03:19:24.608Z,14.02
2023-03-01T03:24:26.408Z,14.10
2023-03-01T03:29:28.149Z,13.80
2023-03-01T03:34:30.269Z,13.65
2023-03-01T03:39:35.752Z,13.50
2023-03-01T03:44:38.733Z,13.73
2023-03-01T03:49:40.588Z,13.90
2023-03-01T03:54:42.442Z,13.48
2023-03-01T03:59:44.162Z,13.68
2023-03-01T04:04:46.171Z,12.77
2023-03-01T04:09:47.872Z,14.32
2023-03-01T04:14:50.353Z,13.68
2023-03-01T04:19:52.241Z,13.52
2023-03-01T04:24:53.984Z,13.93
2023-03-01T04:29:55.731Z,14.45
2023-03-01T04:34:57.441Z,14.27
2023-03-01T04:39:59.802Z,13.00
2023-03-01T04:45:02.097Z,13.48
2023-03-01T04:50:04.797Z,13.65
2023-03-01T04:55:07.573Z,12.77
2023-03-01T05:00:21.156Z,12.60
2023-03-01T05:05:28.530Z,13.98
2023-03-01T05:10:31.940Z,14.00
2023-03-01T05:15:34.303Z,13.95
2023-03-01T05:20:37.433Z,13.70
2023-03-01T05:25:41.190Z,14.82
2023-03-01T05:30:43.046Z,13.85
2023-03-01T05:35:46.966Z,17.20
2023-03-01T05:40:49.520Z,16.77
2023-03-01T05:45:51.494Z,17.10
2023-03-01T05:50:53.479Z,16.55
2023-03-01T05:55:55.269Z,16.52
2023-03-01T06:00:57.767Z,16.55
2023-03-01T06:06:00.122Z,16.23
2023-03-01T06:11:02.550Z,15.88
2023-03-01T06:16:08.235Z,15.07
2023-03-01T06:21:10.691Z,15.93
2023-03-01T06:26:12.489Z,15.50
2023-03-01T06:31:14.383Z,14.15
2023-03-01T06:36:20.193Z,14.65
2023-03-01T06:41:22.230Z,14.27
2023-03-01T06:46:24.292Z,15.10
2023-03-01T06:51:27.392Z,15.10
2023-03-01T06:56:29.353Z,16.38
2023-03-01T07:01:33.323Z,16.15
2023-03-01T07:06:35.607Z,15.25
2023-03-01T07:11:37.451Z,15.55
2023-03-01T07:16:39.416Z,13.50
2023-03-01T07:21:41.470Z,15.32
2023-03-01T07:26:43.444Z,15.35
2023-03-01T07:31:45.732Z,14.45
2023-03-01T07:36:50.963Z,14.63
2023-03-01T07:41:53.373Z,14.63
2023-03-01T07:46:57.616Z,15.50
2023-03-01T07:51:59.610Z,16.15
2023-03-01T07:57:01.429Z,15.48
2023-03-01T08:02:03.438Z,14.88
2023-03-01T08:07:06.880Z,15.00
2023-03-01T08:12:08.856Z,15.57
2023-03-01T08:17:10.689Z,14.10
2023-03-01T08:22:12.802Z,14.82
2023-03-01T08:27:16.959Z,15.02
2023-03-01T08:32:19.092Z,15.48
2023-03-01T08:37:21.017Z,15.63
2023-03-01T08:42:22.782Z,15.30
2023-03-01T08:47:24.874Z,14.40
2023-03-01T08:52:27.080Z,14.23
2023-03-01T08:57:28.914Z,15.60
2023-03-01T09:02:31.084Z,15.55
2023-03-01T09:07:33.078Z,15.25
2023-03-01T09:12:35.192Z,14.50
2023-03-01T09:17:37.249Z,15.60
2023-03-01T09:22:38.934Z,15.43
2023-03-01T09:27:41.025Z,15.18
2023-03-01T09:32:43.792Z,14.30
2023-03-01T09:37:46.434Z,14.38
2023-03-01T09:43:15.019Z,14.82
2023-03-01T09:48:24.474Z,14.48
2023-03-01T09:53:37.610Z,15.48
2023-03-01T09:58:40.915Z,14.35
2023-03-01T10:04:06.170Z,15.13
2023-03-01T10:09:18.976Z,13.70
2023-03-01T10:14:58.491Z,16.08
2023-03-01T10:20:20.489Z,14.80
2023-03-01T10:25:45.621Z,14.70
2023-03-01T10:30:47.672Z,14.48
2023-03-01T10:35:49.907Z,14.63
2023-03-01T10:41:02.630Z,15.88
2023-03-01T10:46:22.905Z,15.18
2023-03-01T10:51:24.782Z,13.73
2023-03-01T10:56:26.772Z,13.10
2023-03-01T11:01:35.981Z,11.52
2023-03-01T11:06:40.100Z,13.35
2023-03-01T11:11:42.313Z,13.15
2023-03-01T11:16:46.938Z,12.93
2023-03-01T11:21:57.059Z,12.63
2023-03-01T11:27:04.802Z,12.40
2023-03-01T11:32:11.240Z,11.13
2023-03-01T11:37:38.138Z,12.20
2023-03-01T11:43:15.978Z,13.05
2023-03-01T11:49:02.803Z,11.88
2023-03-01T11:54:13.903Z,12.55
2023-03-01T11:59:43.120Z,12.43
2023-03-01T12:05:08.146Z,12.07
2023-03-01T12:10:27.663Z,11.90
2023-03-01T12:15:47.299Z,13.10
2023-03-01T12:21:07.962Z,12.70
2023-03-01T12:26:20.601Z,13.32
2023-03-01T12:31:29.400Z,12.00
2023-03-01T12:36:43.125Z,13.43
2023-03-01T12:42:12.792Z,11.90
2023-03-01T12:47:47.207Z,12.95
2023-03-01T12:52:53.417Z,13.52
2023-03-01T12:58:28.342Z,14.32
2023-03-01T13:03:56.584Z,12.80
2023-03-01T13:09:10.163Z,13.88
2023-03-01T13:14:24.301Z,12.90
2023-03-01T13:19:30.240Z,14.02
2023-03-01T13:24:40.625Z,14.82
2023-03-01T13:34:50.205Z,14.70
2023-03-01T13:39:52.643Z,13.57
2023-03-01T13:44:54.532Z,13.88
2023-03-01T13:50:05.289Z,13.45
2023-03-01T13:55:15.376Z,12.85
2023-03-01T14:00:36.515Z,14.18
2023-03-01T14:05:39.576Z,14.27
2023-03-01T14:11:08.063Z,12.90
2023-03-01T14:16:56.044Z,14.48
2023-03-01T14:22:30.801Z,13.77
2023-03-01T14:27:43.148Z,13.10
2023-03-01T14:32:57.660Z,13.57
2023-03-01T14:37:59.639Z,14.07
2023-03-01T14:43:09.681Z,14.07
2023-03-01T14:48:13.736Z,13.18
2023-03-01T14:53:25.747Z,13.02
2023-03-01T14:58:27.865Z,13.32
2023-03-01T15:03:39.354Z,14.00
2023-03-01T15:08:48.135Z,13.85
2023-03-01T15:13:50.601Z,13.73
2023-03-01T15:18:59.923Z,13.68
2023-03-01T15:24:20.993Z,14.13
2023-03-01T15:29:31.111Z,13.55
2023-03-01T15:34:38.833Z,12.93
2023-03-01T15:39:44.462Z,14.05
2023-03-01T15:44:46.652Z,13.73
2023-03-01T15:49:54.935Z,13.00
2023-03-01T15:55:03.187Z,12.70
2023-03-01T16:00:12.586Z,12.75
2023-03-01T16:05:27.324Z,13.15
2023-03-01T16:10:29.877Z,13.05
2023-03-01T16:15:39.100Z,15.05
2023-03-01T16:20:41.235Z,14.50
2023-03-01T16:25:43.100Z,12.93
2023-03-01T16:30:49.222Z,12.60
2023-03-01T16:35:51.705Z,13.30
2023-03-01T16:40:53.760Z,12.15
2023-03-01T16:45:55.845Z,12.20
2023-03-01T16:50:59.146Z,13.23
2023-03-01T16:56:02.165Z,14.35
2023-03-01T17:01:07.212Z,13.80
2023-03-01T17:06:17.575Z,14.30
2023-03-01T17:11:20.973Z,14.75
2023-03-01T17:16:23.483Z,13.93
2023-03-01T17:21:26.724Z,13.60
2023-03-01T17:26:32.498Z,13.07
2023-03-01T17:31:34.894Z,15.57
2023-03-01T17:36:43.978Z,14.48
2023-03-01T17:41:45.819Z,15.38
2023-03-01T17:46:47.844Z,16.30
2023-03-01T17:51:49.569Z,14.38
2023-03-01T17:56:52.195Z,15.60
2023-03-01T18:01:54.076Z,14.50
2023-03-01T18:06:56.210Z,17.33
2023-03-01T18:11:58.835Z,16.30
2023-03-01T18:17:04.443Z,17.60
2023-03-01T18:22:06.639Z,18.60
2023-03-01T18:27:08.997Z,65.20
2023-03-01T18:32:10.832Z,31.17
2023-03-01T18:37:12.794Z,25.60
2023-03-01T18:42:16.659Z,20.27
2023-03-01T18:47:18.611Z,19.20
2023-03-01T18:52:20.407Z,18.90
2023-03-01T18:57:22.256Z,20.17
2023-03-01T19:02:24.320Z,16.83
2023-03-01T19:07:26.122Z,17.58
2023-03-01T19:12:28.597Z,18.92
2023-03-01T19:17:31.478Z,19.60
2023-03-01T19:22:33.391Z,18.55
2023-03-01T19:27:35.567Z,17.55
2023-03-01T19:32:37.291Z,17.17
2023-03-01T19:37:39.311Z,19.02
2023-03-01T19:42:41.144Z,20.60
2023-03-01T19:47:47.668Z,19.38
2023-03-01T19:52:49.938Z,19.38
2023-03-01T19:57:51.690Z,23.05
2023-03-01T20:02:53.547Z,24.33
2023-03-01T20:07:57.569Z,25.15
2023-03-01T20:13:02.001Z,24.73
2023-03-01T20:18:04.441Z,23.20
2023-03-01T20:23:06.642Z,18.83
2023-03-01T20:28:08.507Z,17.25
2023-03-01T20:33:11.404Z,15.40
2023-03-01T20:38:13.449Z,18.75
2023-03-01T20:43:15.368Z,22.55
2023-03-01T20:48:17.819Z,23.85
2023-03-01T20:53:19.817Z,18.17
2023-03-01T20:58:21.565Z,17.85
2023-03-01T21:03:23.423Z,18.42
2023-03-01T21:08:25.926Z,17.45
2023-03-01T21:13:28.867Z,17.67
2023-03-01T21:18:32.594Z,16.33
2023-03-01T21:23:36.203Z,15.82
2023-03-01T21:28:39.168Z,18.48
2023-03-01T21:33:45.576Z,18.20
2023-03-01T21:38:49.399Z,15.38
2023-03-01T21:43:53.676Z,15.43
2023-03-01T21:48:56.720Z,15.82
2023-03-01T21:54:01.375Z,16.40
2023-03-01T21:59:03.829Z,17.25
2023-03-01T22:04:06.242Z,17.17
2023-03-01T22:09:20.197Z,15.27
2023-03-01T22:14:22.641Z,16.60
2023-03-01T22:19:24.822Z,17.17
2023-03-01T22:24:27.353Z,16.52
2023-03-01T22:29:30.917Z,18.30
2023-03-01T22:34:32.758Z,17.70
2023-03-01T22:39:34.582Z,17.38
2023-03-01T22:44:36.445Z,16.73
2023-03-01T22:49:38.353Z,15.55
2023-03-01T22:54:40.296Z,15.73
2023-03-01T22:59:42.158Z,17.05
2023-03-01T23:04:44.526Z,17.38
2023-03-01T23:09:46.425Z,17.88
2023-03-01T23:14:48.209Z,16.50
2023-03-01T23:19:51.410Z,18.55
2023-03-01T23:24:53.337Z,16.25
2023-03-01T23:29:55.412Z,17.60
2023-03-01T23:34:57.490Z,17.35
2023-03-01T23:39:59.575Z,16.40
2023-03-01T23:45:01.464Z,15.68
2023-03-01T23:50:03.511Z,16.63
2023-03-01T23:55:09.114Z,15.85
